Time;durP1;ratioP1;P1;durP2;ratioP2;P2;SDS_P1;SDS_P2;PMS_P1;PMS_P2;Temp;Humidity;BMP_temperature;BMP_pressure;BME280_temperature;BME280_humidity;BME280_pressure;Samples;Min_cycle;Max_cycle;Signal;HPM_P1;HPM_P2
2021/06/10 00:00:05;;;;;;;12.55;10.07;;;21.50;99.90;;;;;;5143619;27;20373;-77
2021/06/10 00:02:32;;;;;;;13.18;10.50;;;21.20;99.90;;;;;;5144905;27;20019;-77
2021/06/10 00:04:59;;;;;;;11.85;9.85;;;21.40;99.90;;;;;;5144497;27;20062;-76
2021/06/10 00:07:25;;;;;;;13.32;10.23;;;21.50;99.90;;;;;;5126650;27;20027;-76
2021/06/10 00:09:51;;;;;;;13.30;9.88;;;21.50;99.90;;;;;;5143952;27;20026;-76
2021/06/10 00:12:19;;;;;;;13.40;10.32;;;21.60;99.90;;;;;;5160537;27;20377;-75
2021/06/10 00:14:49;;;;;;;13.07;10.43;;;21.60;99.90;;;;;;5144245;27;20078;-76
2021/06/10 00:17:16;;;;;;;12.73;10.82;;;21.60;99.90;;;;;;5143996;27;20023;-75
2021/06/10 00:19:43;;;;;;;16.02;11.30;;;21.60;99.90;;;;;;5143741;27;20023;-76
2021/06/10 00:22:09;;;;;;;13.60;11.82;;;21.50;99.90;;;;;;5144501;27;20015;-76
2021/06/10 00:24:36;;;;;;;16.27;12.10;;;21.30;99.90;;;;;;5143929;27;20044;-75
2021/06/10 00:27:08;;;;;;;13.57;12.05;;;21.20;99.90;;;;;;5143932;27;20520;-75
2021/06/10 00:29:34;;;;;;;13.18;11.40;;;21.20;99.90;;;;;;5143227;27;20031;-75
2021/06/10 00:32:00;;;;;;;18.42;11.77;;;21.20;99.90;;;;;;5142639;27;20023;-75
2021/06/10 00:34:26;;;;;;;14.23;11.23;;;21.10;99.90;;;;;;5143450;27;20015;-76
2021/06/10 00:36:52;;;;;;;13.43;11.35;;;20.90;99.90;;;;;;5143942;27;20480;-76
2021/06/10 00:39:18;;;;;;;14.63;10.85;;;21.00;99.90;;;;;;5143136;27;20059;-75
2021/06/10 00:41:44;;;;;;;13.43;11.52;;;20.90;99.90;;;;;;5143729;27;20019;-74
2021/06/10 00:44:10;;;;;;;13.32;10.82;;;20.80;99.90;;;;;;5141960;27;20071;-75
2021/06/10 00:46:37;;;;;;;13.55;11.02;;;20.80;99.90;;;;;;5143668;27;20067;-76
2021/06/10 00:49:04;;;;;;;14.48;10.60;;;20.70;99.90;;;;;;5142478;27;20080;-75
2021/06/10 00:51:30;;;;;;;11.80;10.63;;;20.80;99.90;;;;;;5143967;27;20022;-75
2021/06/10 00:53:58;;;;;;;13.90;10.95;;;20.90;99.90;;;;;;5141055;27;20007;-76
2021/06/10 00:56:24;;;;;;;12.32;10.63;;;20.90;99.90;;;;;;5143828;27;20495;-75
2021/06/10 00:58:54;;;;;;;12.23;10.93;;;20.90;99.90;;;;;;5144512;27;20042;-76
2021/06/10 01:01:20;;;;;;;12.45;11.05;;;20.80;99.90;;;;;;5142462;27;20509;-75
2021/06/10 01:03:46;;;;;;;13.85;10.45;;;20.60;99.90;;;;;;5142941;27;20042;-75
2021/06/10 01:06:34;;;;;;;12.98;11.02;;;20.70;99.90;;;;;;5142692;27;20024;-75
2021/06/10 01:09:07;;;;;;;11.93;10.70;;;20.60;99.90;;;;;;5143335;27;20023;-75
2021/06/10 01:11:40;;;;;;;11.82;10.63;;;20.50;99.90;;;;;;5144284;27;20016;-75
2021/06/10 01:14:26;;;;;;;13.57;12.15;;;20.40;99.90;;;;;;5143756;27;20016;-75
2021/06/10 01:16:54;;;;;;;16.90;14.00;;;20.40;99.90;;;;;;5120242;27;20385;-75
2021/06/10 01:19:38;;;;;;;14.65;11.65;;;20.40;99.90;;;;;;5142130;27;20019;-76
2021/06/10 01:22:27;;;;;;;13.32;11.43;;;20.30;99.90;;;;;;5142672;27;20031;-76
2021/06/10 01:25:14;;;;;;;15.27;11.13;;;20.30;99.90;;;;;;5133336;27;20114;-75
2021/06/10 01:27:50;;;;;;;13.65;11.30;;;20.20;99.90;;;;;;5142573;27;20051;-75
2021/06/10 01:30:21;;;;;;;12.57;10.85;;;20.30;99.90;;;;;;5142155;27;20098;-76
2021/06/10 01:33:00;;;;;;;14.20;11.50;;;20.50;99.90;;;;;;5141727;27;20031;-75
2021/06/10 01:35:31;;;;;;;12.75;11.45;;;20.50;99.90;;;;;;5140598;27;20515;-75
2021/06/10 01:37:59;;;;;;;12.98;11.55;;;20.40;99.90;;;;;;5143639;27;20019;-75
2021/06/10 01:40:27;;;;;;;12.38;11.07;;;20.40;99.90;;;;;;5141529;27;20544;-74
2021/06/10 01:42:55;;;;;;;16.70;11.35;;;20.50;99.90;;;;;;5142963;27;20011;-76
2021/06/10 01:45:23;;;;;;;13.43;11.77;;;20.40;99.90;;;;;;5142421;27;20023;-75
2021/06/10 01:47:51;;;;;;;15.15;11.57;;;20.30;99.90;;;;;;5143572;27;20039;-76
2021/06/10 01:50:17;;;;;;;14.70;11.13;;;20.30;99.90;;;;;;5142415;27;20023;-75
2021/06/10 01:52:45;;;;;;;14.40;11.25;;;20.40;99.90;;;;;;5142058;27;20372;-76
2021/06/10 01:55:16;;;;;;;12.40;11.10;;;20.40;99.90;;;;;;5140651;27;20381;-75
2021/06/10 01:57:44;;;;;;;11.95;10.75;;;20.40;99.90;;;;;;5142227;27;20049;-75
2021/06/10 02:00:12;;;;;;;16.10;11.80;;;20.20;99.90;;;;;;5140466;27;20068;-75
2021/06/10 02:02:39;;;;;;;12.85;11.20;;;20.20;99.90;;;;;;5140693;27;20019;-76
2021/06/10 02:05:07;;;;;;;14.25;11.65;;;20.10;99.90;;;;;;5141292;27;20051;-75
2021/06/10 02:07:38;;;;;;;12.32;11.00;;;20.00;99.90;;;;;;5141894;27;20023;-76
2021/06/10 02:10:07;;;;;;;13.98;11.02;;;20.20;99.90;;;;;;5139559;27;20357;-76
2021/06/10 02:12:34;;;;;;;13.38;11.38;;;20.30;99.90;;;;;;5142498;27;20492;-76
2021/06/10 02:15:02;;;;;;;13.93;10.85;;;20.30;99.90;;;;;;5140300;27;20023;-76
2021/06/10 02:17:28;;;;;;;11.68;10.43;;;20.20;99.90;;;;;;5139072;27;20102;-75
2021/06/10 02:19:54;;;;;;;11.80;10.35;;;20.20;99.90;;;;;;5140394;27;20365;-75
2021/06/10 02:22:20;;;;;;;14.52;10.30;;;20.40;99.90;;;;;;5142169;27;20452;-74
2021/06/10 02:24:50;;;;;;;11.52;10.32;;;20.40;99.90;;;;;;5139882;27;20019;-75
2021/06/10 02:27:17;;;;;;;12.55;10.48;;;20.30;99.90;;;;;;5140760;27;20164;-76
2021/06/10 02:29:44;;;;;;;11.68;10.45;;;20.10;99.90;;;;;;5141182;27;20030;-76
2021/06/10 02:32:11;;;;;;;12.38;10.50;;;20.20;99.90;;;;;;5141141;27;20567;-76
2021/06/10 02:34:37;;;;;;;14.30;10.43;;;20.30;99.90;;;;;;5140934;27;20434;-75
2021/06/10 02:37:05;;;;;;;11.40;9.82;;;20.30;99.90;;;;;;5137835;27;20027;-74
2021/06/10 02:39:35;;;;;;;11.65;10.27;;;20.40;99.90;;;;;;5140078;27;20024;-75
2021/06/10 02:42:02;;;;;;;11.90;10.52;;;20.50;99.90;;;;;;5142052;27;20030;-76
2021/06/10 02:44:29;;;;;;;12.50;10.20;;;20.40;99.90;;;;;;5140148;28;20034;-74
2021/06/10 02:46:56;;;;;;;11.82;10.40;;;20.40;99.90;;;;;;5139183;28;20064;-76
2021/06/10 02:49:24;;;;;;;12.50;10.18;;;20.40;99.90;;;;;;5140741;28;20118;-76
2021/06/10 02:51:52;;;;;;;11.38;10.32;;;20.30;99.90;;;;;;5140383;28;20051;-77
2021/06/10 02:54:21;;;;;;;15.55;11.45;;;20.30;99.90;;;;;;5141037;27;20439;-76
2021/06/10 02:56:48;;;;;;;13.68;11.05;;;20.10;99.90;;;;;;5140791;27;20019;-77
2021/06/10 02:59:18;;;;;;;11.90;10.70;;;20.00;99.90;;;;;;5139988;28;20071;-75
2021/06/10 03:01:46;;;;;;;17.55;11.00;;;19.90;99.90;;;;;;5139472;28;20381;-76
2021/06/10 03:04:14;;;;;;;13.90;10.98;;;20.00;99.90;;;;;;5137322;28;20512;-76
2021/06/10 03:06:41;;;;;;;15.27;10.60;;;19.90;99.90;;;;;;5138872;28;20019;-75
2021/06/10 03:09:08;;;;;;;11.15;10.05;;;19.90;99.90;;;;;;5141573;27;20054;-76
2021/06/10 03:11:38;;;;;;;12.82;9.90;;;19.90;99.90;;;;;;5140902;27;20098;-74
2021/06/10 03:14:12;;;;;;;15.52;9.43;;;19.90;99.90;;;;;;5142868;27;20034;-75
2021/06/10 03:16:40;;;;;;;10.25;9.15;;;19.90;99.90;;;;;;5162354;27;20504;-75
2021/06/10 03:19:07;;;;;;;13.40;9.63;;;20.00;99.90;;;;;;5143179;27;20060;-76
2021/06/10 03:21:34;;;;;;;11.20;10.10;;;20.30;99.90;;;;;;5144188;27;20068;-75
2021/06/10 03:24:00;;;;;;;13.10;9.70;;;20.20;99.90;;;;;;5145689;27;20015;-75
2021/06/10 03:26:28;;;;;;;11.05;8.93;;;20.20;99.90;;;;;;5146374;27;20011;-75
2021/06/10 03:28:55;;;;;;;11.85;9.75;;;20.20;99.90;;;;;;5141816;27;20030;-75
2021/06/10 03:31:21;;;;;;;13.13;10.25;;;20.20;99.90;;;;;;5141761;27;20015;-75
2021/06/10 03:33:50;;;;;;;11.18;9.45;;;20.20;99.90;;;;;;5145129;27;20015;-76
2021/06/10 03:36:18;;;;;;;11.00;9.57;;;20.30;99.90;;;;;;5146322;27;20019;-75
2021/06/10 03:38:45;;;;;;;11.35;10.07;;;20.40;99.90;;;;;;5145095;27;20023;-75
2021/06/10 03:41:12;;;;;;;12.00;9.93;;;20.40;99.90;;;;;;5142734;27;20110;-76
2021/06/10 03:43:40;;;;;;;11.90;10.10;;;20.30;99.90;;;;;;5145340;27;20019;-76
2021/06/10 03:46:08;;;;;;;13.20;10.38;;;20.10;99.90;;;;;;5144845;27;20042;-75
2021/06/10 03:48:37;;;;;;;12.30;10.00;;;20.20;99.90;;;;;;5144662;27;20015;-76
2021/06/10 03:51:14;;;;;;;11.38;8.75;;;20.30;99.90;;;;;;5144331;27;20050;-76
2021/06/10 03:53:40;;;;;;;12.27;9.82;;;20.30;99.90;;;;;;5142901;27;20003;-76
2021/06/10 03:56:06;;;;;;;12.23;9.48;;;20.40;99.90;;;;;;5144150;27;20020;-75
2021/06/10 03:58:32;;;;;;;11.63;8.73;;;20.40;99.90;;;;;;5143226;27;20069;-75
2021/06/10 04:00:58;;;;;;;13.38;9.20;;;20.40;99.90;;;;;;5142774;27;20015;-76
2021/06/10 04:03:25;;;;;;;9.85;8.85;;;20.50;99.90;;;;;;5142900;27;20357;-75
2021/06/10 04:05:51;;;;;;;10.88;9.70;;;20.50;99.90;;;;;;5144654;27;20011;-75
2021/06/10 04:08:17;;;;;;;10.20;9.18;;;20.50;99.90;;;;;;5143232;27;20051;-76
2021/06/10 04:10:43;;;;;;;10.13;8.80;;;20.50;99.90;;;;;;5144605;27;20027;-76
2021/06/10 04:13:09;;;;;;;11.27;9.27;;;20.60;99.90;;;;;;5142256;27;20492;-76
2021/06/10 04:15:35;;;;;;;12.27;8.90;;;20.70;99.90;;;;;;5141192;27;20110;-77
2021/06/10 04:18:03;;;;;;;11.07;9.00;;;20.80;99.90;;;;;;5143473;27;20026;-75
2021/06/10 04:20:29;;;;;;;10.32;9.20;;;20.70;99.90;;;;;;5143761;27;20020;-76
2021/06/10 04:22:55;;;;;;;12.20;8.75;;;20.60;99.90;;;;;;5143739;27;20025;-76
2021/06/10 04:25:21;;;;;;;12.00;8.57;;;20.60;99.90;;;;;;5144169;27;20035;-76
2021/06/10 04:27:47;;;;;;;12.45;8.98;;;20.50;99.90;;;;;;5142991;27;20476;-75
2021/06/10 04:30:14;;;;;;;9.82;8.93;;;20.50;99.90;;;;;;5141740;27;20019;-76
2021/06/10 04:32:44;;;;;;;10.90;9.55;;;20.60;99.90;;;;;;5143230;27;20083;-76
2021/06/10 04:35:11;;;;;;;11.52;9.20;;;20.70;99.90;;;;;;5143733;27;20030;-76
2021/06/10 04:37:37;;;;;;;12.05;10.10;;;20.70;99.90;;;;;;5141785;27;20048;-76
2021/06/10 04:40:05;;;;;;;12.50;9.35;;;20.40;99.90;;;;;;5141434;27;20019;-77
2021/06/10 04:42:31;;;;;;;12.82;9.13;;;20.60;99.90;;;;;;5142425;27;20003;-76
2021/06/10 04:44:57;;;;;;;10.68;8.80;;;20.50;99.90;;;;;;5142036;27;20030;-74
2021/06/10 04:47:23;;;;;;;11.23;9.23;;;20.70;99.90;;;;;;5142971;27;20087;-75
2021/06/10 04:49:49;;;;;;;11.85;9.20;;;20.80;99.90;;;;;;5143475;27;20011;-76
2021/06/10 04:52:15;;;;;;;14.70;10.00;;;20.80;99.90;;;;;;5142277;27;20051;-75
2021/06/10 04:54:41;;;;;;;12.43;9.40;;;20.80;99.90;;;;;;5143564;27;20023;-75
2021/06/10 04:57:07;;;;;;;11.82;9.57;;;21.10;99.90;;;;;;5142894;27;20019;-76
2021/06/10 04:59:33;;;;;;;10.95;9.68;;;21.00;99.90;;;;;;5142816;27;20031;-75
2021/06/10 05:02:01;;;;;;;10.85;9.25;;;20.90;99.90;;;;;;5140559;27;20024;-76
2021/06/10 05:04:27;;;;;;;11.23;9.15;;;20.90;99.90;;;;;;5141718;27;20043;-76
2021/06/10 05:06:54;;;;;;;16.30;10.32;;;21.00;99.90;;;;;;5142818;27;20030;-76
2021/06/10 05:09:20;;;;;;;13.50;9.25;;;21.00;99.90;;;;;;5142765;27;20022;-76
2021/06/10 05:11:46;;;;;;;12.57;9.88;;;21.00;99.90;;;;;;5142476;27;20023;-76
2021/06/10 05:14:12;;;;;;;11.75;9.68;;;21.00;99.90;;;;;;5141017;27;20064;-75
2021/06/10 05:16:38;;;;;;;11.18;9.27;;;21.20;99.90;;;;;;5142077;27;20023;-77
2021/06/10 05:19:04;;;;;;;14.02;9.32;;;21.40;99.90;;;;;;5143560;27;20026;-76
2021/06/10 05:21:30;;;;;;;10.98;8.88;;;21.50;99.90;;;;;;5143307;27;20011;-76
2021/06/10 05:23:57;;;;;;;12.35;9.10;;;21.70;99.90;;;;;;5140840;27;20020;-75
2021/06/10 05:26:23;;;;;;;11.88;9.90;;;21.60;99.90;;;;;;5142931;27;20038;-76
2021/06/10 05:28:51;;;;;;;12.65;9.25;;;21.40;99.90;;;;;;5140598;27;20023;-76
2021/06/10 05:31:17;;;;;;;10.70;8.85;;;21.40;99.90;;;;;;5142981;27;20043;-76
2021/06/10 05:33:43;;;;;;;10.60;9.50;;;21.40;99.90;;;;;;5142549;27;20114;-75
2021/06/10 05:36:09;;;;;;;10.20;8.98;;;21.10;99.90;;;;;;5142190;27;20441;-77
2021/06/10 05:38:35;;;;;;;11.57;9.70;;;21.20;99.90;;;;;;5141783;27;20106;-77
2021/06/10 05:41:01;;;;;;;12.13;9.13;;;21.30;99.90;;;;;;5142501;27;20441;-77
2021/06/10 05:43:28;;;;;;;10.15;8.32;;;21.30;99.90;;;;;;5157939;27;20030;-76
2021/06/10 05:45:54;;;;;;;12.05;8.02;;;21.60;99.90;;;;;;5141672;27;20019;-76
2021/06/10 05:48:20;;;;;;;11.45;7.63;;;21.90;99.90;;;;;;5142186;27;20023;-77
2021/06/10 05:50:47;;;;;;;10.85;8.93;;;22.20;99.90;;;;;;5143072;27;20024;-76
2021/06/10 05:53:15;;;;;;;12.13;8.45;;;22.00;99.90;;;;;;5140639;27;20023;-75
2021/06/10 05:55:43;;;;;;;12.15;9.10;;;22.10;99.90;;;;;;5141547;27;20029;-76
2021/06/10 05:58:09;;;;;;;10.82;9.05;;;22.10;99.90;;;;;;5141800;27;20023;-76
2021/06/10 06:00:35;;;;;;;10.75;9.20;;;22.10;99.90;;;;;;5140394;27;20008;-75
2021/06/10 06:03:03;;;;;;;10.52;9.45;;;22.10;99.90;;;;;;5141189;27;20054;-74
2021/06/10 06:05:30;;;;;;;13.02;9.98;;;22.30;99.90;;;;;;5141450;27;20030;-77
2021/06/10 06:07:56;;;;;;;11.43;9.43;;;22.30;99.90;;;;;;5142846;27;20137;-79
2021/06/10 06:10:23;;;;;;;10.07;9.07;;;22.30;99.90;;;;;;5138207;27;20484;-78
2021/06/10 06:12:51;;;;;;;13.00;10.40;;;22.30;99.90;;;;;;5139251;27;20119;-78
2021/06/10 06:15:18;;;;;;;11.15;8.82;;;22.40;99.90;;;;;;5136064;27;20060;-78
2021/06/10 06:17:46;;;;;;;13.70;10.15;;;22.60;99.90;;;;;;5134997;27;20057;-78
2021/06/10 06:20:14;;;;;;;12.65;9.77;;;22.40;99.90;;;;;;5136111;27;20078;-79
2021/06/10 06:22:42;;;;;;;12.57;8.98;;;22.40;99.90;;;;;;5133969;27;20023;-80
2021/06/10 06:25:13;;;;;;;12.02;9.32;;;22.60;99.90;;;;;;5132843;27;20035;-76
2021/06/10 06:27:39;;;;;;;9.65;8.43;;;22.50;99.90;;;;;;5134149;27;20043;-76
2021/06/10 06:30:07;;;;;;;11.50;8.82;;;22.40;99.90;;;;;;5137602;27;20022;-76
2021/06/10 06:32:34;;;;;;;10.63;8.23;;;22.60;99.90;;;;;;5137706;27;20027;-76
2021/06/10 06:35:01;;;;;;;12.40;8.50;;;22.90;99.90;;;;;;5137274;27;20016;-79
2021/06/10 06:37:27;;;;;;;13.32;8.48;;;22.80;99.90;;;;;;5135797;27;20031;-79
2021/06/10 06:39:52;;;;;;;10.80;8.05;;;23.00;99.90;;;;;;5137058;27;20165;-77
2021/06/10 06:42:18;;;;;;;11.02;7.93;;;23.00;99.90;;;;;;5137764;28;20003;-79
2021/06/10 06:44:44;;;;;;;9.50;7.57;;;23.20;99.90;;;;;;5139700;27;20019;-76
2021/06/10 06:47:10;;;;;;;11.68;7.55;;;23.30;99.90;;;;;;5140650;27;20016;-78
2021/06/10 06:49:36;;;;;;;10.90;7.57;;;23.40;99.50;;;;;;5144607;27;20011;-78
2021/06/10 06:52:03;;;;;;;8.95;7.47;;;23.70;99.40;;;;;;5144057;27;20058;-77
2021/06/10 06:54:29;;;;;;;12.65;7.75;;;23.50;99.00;;;;;;5161636;27;20102;-79
2021/06/10 06:56:55;;;;;;;11.43;8.05;;;23.40;99.00;;;;;;5145780;27;20545;-76
2021/06/10 06:59:21;;;;;;;12.10;8.73;;;23.30;99.20;;;;;;5147060;27;20034;-76
2021/06/10 07:01:47;;;;;;;13.65;8.57;;;23.30;99.30;;;;;;5140275;27;20003;-77
2021/06/10 07:04:13;;;;;;;8.90;7.85;;;23.40;99.50;;;;;;5139997;27;20070;-76
2021/06/10 07:06:39;;;;;;;12.20;7.50;;;23.60;99.20;;;;;;5139951;27;20484;-75
2021/06/10 07:09:05;;;;;;;11.00;7.70;;;23.90;99.60;;;;;;5141121;27;20094;-79
2021/06/10 07:11:33;;;;;;;9.70;7.30;;;24.20;98.70;;;;;;5141767;27;20098;-78
2021/06/10 07:13:59;;;;;;;9.75;7.60;;;24.00;97.10;;;;;;5145288;27;20022;-79
2021/06/10 07:16:25;;;;;;;7.78;6.97;;;24.20;97.30;;;;;;5143596;27;20031;-76
2021/06/10 07:18:50;;;;;;;9.43;6.95;;;24.50;97.10;;;;;;5140376;27;20490;-78
2021/06/10 07:21:16;;;;;;;10.07;7.53;;;24.70;97.80;;;;;;5138569;27;20035;-77
2021/06/10 07:23:42;;;;;;;9.55;6.88;;;24.90;97.50;;;;;;5144256;27;20031;-77
2021/06/10 07:26:08;;;;;;;13.82;8.18;;;25.00;97.10;;;;;;5143635;27;20030;-79
2021/06/10 07:28:34;;;;;;;9.13;7.25;;;25.20;97.20;;;;;;5144901;27;20118;-79
2021/06/10 07:31:00;;;;;;;12.23;8.00;;;25.40;97.10;;;;;;5141693;27;19999;-78
2021/06/10 07:33:26;;;;;;;13.00;8.45;;;25.30;96.80;;;;;;5139146;27;20029;-78
2021/06/10 07:35:52;;;;;;;9.23;7.90;;;25.10;97.30;;;;;;5135128;27;20088;-81
2021/06/10 07:38:18;;;;;;;9.98;7.68;;;25.20;97.00;;;;;;5144387;27;20019;-79
2021/06/10 07:40:44;;;;;;;10.63;8.00;;;25.30;96.20;;;;;;5147032;27;20026;-78
2021/06/10 07:43:10;;;;;;;10.45;8.32;;;25.40;96.10;;;;;;5145099;27;20027;-79
2021/06/10 07:45:37;;;;;;;7.68;6.85;;;25.40;96.40;;;;;;5144434;27;20010;-79
2021/06/10 07:48:04;;;;;;;10.65;7.50;;;25.90;97.00;;;;;;5146796;27;20091;-80
2021/06/10 07:50:30;;;;;;;10.38;7.93;;;25.90;96.40;;;;;;5144006;27;20498;-80
2021/06/10 07:52:57;;;;;;;9.43;7.25;;;25.80;95.90;;;;;;5142593;27;20076;-81
2021/06/10 07:55:23;;;;;;;8.82;7.22;;;25.80;96.20;;;;;;5141340;27;20071;-80
2021/06/10 07:57:50;;;;;;;7.80;6.60;;;25.70;96.20;;;;;;5139515;27;20469;-79
2021/06/10 08:00:18;;;;;;;10.35;6.85;;;25.70;95.30;;;;;;5141043;27;20026;-79
2021/06/10 08:02:44;;;;;;;7.70;6.05;;;25.60;95.30;;;;;;5160759;27;20015;-78
2021/06/10 08:05:11;;;;;;;6.63;5.95;;;26.00;95.10;;;;;;5142696;27;20404;-79
2021/06/10 08:07:42;;;;;;;7.38;6.40;;;26.00;94.90;;;;;;5141780;27;20023;-83
2021/06/10 08:10:09;;;;;;;9.45;6.93;;;26.30;94.40;;;;;;5142526;27;20370;-81
2021/06/10 08:12:35;;;;;;;7.68;6.20;;;26.40;94.30;;;;;;5159281;27;20477;-80
2021/06/10 08:15:08;;;;;;;10.25;5.97;;;26.50;93.40;;;;;;5142957;27;20030;-79
2021/06/10 08:17:35;;;;;;;7.88;5.47;;;26.20;93.70;;;;;;5143370;27;20053;-77
2021/06/10 08:20:04;;;;;;;12.60;5.80;;;26.30;93.20;;;;;;5136166;27;20019;-78
2021/06/10 08:22:30;;;;;;;9.02;5.47;;;26.60;92.80;;;;;;5134255;27;20030;-77
2021/06/10 08:24:56;;;;;;;7.80;5.30;;;26.80;92.70;;;;;;5134260;27;20019;-77
2021/06/10 08:27:22;;;;;;;8.82;6.40;;;26.80;91.90;;;;;;5157876;27;20033;-80
2021/06/10 08:29:48;;;;;;;8.05;5.60;;;26.30;92.20;;;;;;5142972;27;20027;-81
2021/06/10 08:32:14;;;;;;;7.35;5.75;;;26.60;92.40;;;;;;5142186;27;20023;-81
2021/06/10 08:34:40;;;;;;;9.30;6.22;;;26.80;92.30;;;;;;5143046;27;20026;-78
2021/06/10 08:37:07;;;;;;;9.88;6.07;;;27.00;92.50;;;;;;5146734;27;20030;-78
2021/06/10 08:39:33;;;;;;;7.30;5.80;;;27.40;92.40;;;;;;5142845;27;20030;-80
2021/06/10 08:41:59;;;;;;;9.60;5.32;;;27.40;92.50;;;;;;5142773;27;20031;-81
2021/06/10 08:44:25;;;;;;;7.90;4.75;;;27.30;91.00;;;;;;5142555;27;20023;-80
2021/06/10 08:46:52;;;;;;;5.75;4.60;;;27.60;89.60;;;;;;5142037;27;20011;-83
2021/06/10 08:49:19;;;;;;;8.48;4.22;;;27.50;90.20;;;;;;5158386;27;20499;-80
2021/06/10 08:51:45;;;;;;;6.60;4.05;;;27.60;86.90;;;;;;5141683;27;20030;-81
2021/06/10 08:54:11;;;;;;;10.82;4.38;;;27.70;89.50;;;;;;5141401;27;20015;-82
2021/06/10 08:56:40;;;;;;;6.85;4.18;;;27.90;86.50;;;;;;5140070;27;20073;-82
2021/06/10 08:59:09;;;;;;;5.85;4.30;;;27.50;84.90;;;;;;5136724;27;20019;-77
2021/06/10 09:01:35;;;;;;;6.90;4.32;;;27.20;89.10;;;;;;5137218;27;20019;-80
2021/06/10 09:04:02;;;;;;;7.95;4.60;;;27.10;87.40;;;;;;5138669;27;20045;-83
2021/06/10 09:06:48;;;;;;;9.50;4.88;;;27.50;88.30;;;;;;5142289;27;20030;-82
2021/06/10 09:09:36;;;;;;;7.22;4.47;;;28.40;89.40;;;;;;5143456;27;20042;-81
2021/06/10 09:12:08;;;;;;;5.75;4.25;;;28.10;90.20;;;;;;5142696;27;20587;-81
2021/06/10 09:15:01;;;;;;;14.40;4.90;;;27.70;86.90;;;;;;5145081;27;20027;-82
2021/06/10 09:17:27;;;;;;;7.28;4.30;;;27.60;85.20;;;;;;5142478;27;20465;-82
2021/06/10 09:19:53;;;;;;;7.55;3.90;;;27.60;88.80;;;;;;5142355;27;20038;-80
2021/06/10 09:22:19;;;;;;;6.20;4.15;;;27.10;84.70;;;;;;5135860;27;20029;-81
2021/06/10 09:24:45;;;;;;;6.68;3.70;;;26.80;83.90;;;;;;5139365;27;20019;-80
2021/06/10 09:27:13;;;;;;;8.75;3.58;;;26.80;85.30;;;;;;5138593;27;20110;-81
2021/06/10 09:29:44;;;;;;;6.28;3.70;;;26.70;83.90;;;;;;5140791;27;20011;-81
2021/06/10 09:32:25;;;;;;;6.57;3.45;;;26.40;84.10;;;;;;5137702;27;20046;-82
2021/06/10 09:34:57;;;;;;;6.35;3.53;;;26.40;85.30;;;;;;5140819;27;20019;-79
2021/06/10 09:37:27;;;;;;;6.35;4.00;;;26.30;85.10;;;;;;5140001;27;20027;-80
2021/06/10 09:39:55;;;;;;;5.85;3.60;;;26.70;85.70;;;;;;5155435;27;20426;-79
2021/06/10 09:42:41;;;;;;;8.05;3.58;;;26.70;84.20;;;;;;5142920;27;20003;-79
2021/06/10 09:45:10;;;;;;;8.23;3.80;;;27.30;84.80;;;;;;5141251;27;20083;-79
2021/06/10 09:47:43;;;;;;;6.15;3.50;;;27.40;81.80;;;;;;5141888;27;20469;-79
2021/06/10 09:50:29;;;;;;;5.40;3.50;;;27.20;82.00;;;;;;5138522;27;20091;-81
2021/06/10 09:53:09;;;;;;;7.57;3.83;;;27.90;83.50;;;;;;5139228;27;20050;-80
2021/06/10 09:55:49;;;;;;;7.05;3.67;;;28.10;81.10;;;;;;5141246;27;20389;-80
2021/06/10 09:58:15;;;;;;;4.35;3.70;;;28.10;82.10;;;;;;5139516;27;20027;-78
2021/06/10 10:00:48;;;;;;;7.13;3.95;;;28.40;83.80;;;;;;5137829;27;20492;-78
2021/06/10 10:03:28;;;;;;;6.10;3.95;;;28.40;84.90;;;;;;5137578;27;20042;-78
2021/06/10 10:05:57;;;;;;;8.80;4.10;;;28.40;84.40;;;;;;5143014;27;20031;-80
2021/06/10 10:08:34;;;;;;;7.10;3.90;;;28.30;86.80;;;;;;5138125;27;20027;-82
2021/06/10 10:11:02;;;;;;;7.85;3.90;;;28.50;86.80;;;;;;5141043;27;20047;-80
2021/06/10 10:13:30;;;;;;;5.88;4.13;;;28.50;86.80;;;;;;5138392;27;20026;-76
2021/06/10 10:16:03;;;;;;;5.32;3.92;;;28.50;87.60;;;;;;5138373;27;20024;-82
2021/06/10 10:18:29;;;;;;;6.25;3.70;;;28.70;86.90;;;;;;5137270;27;20123;-78
2021/06/10 10:21:03;;;;;;;9.02;4.07;;;28.80;87.50;;;;;;5139241;27;20027;-79
2021/06/10 10:23:31;;;;;;;4.80;4.10;;;28.50;85.30;;;;;;5136463;27;20030;-79
2021/06/10 10:25:59;;;;;;;6.13;3.80;;;28.60;85.20;;;;;;5137006;27;20019;-80
2021/06/10 10:28:28;;;;;;;6.20;3.55;;;28.30;86.60;;;;;;5140029;27;20026;-79
2021/06/10 10:30:55;;;;;;;5.82;3.78;;;28.40;87.90;;;;;;5137034;27;20519;-78
2021/06/10 10:33:23;;;;;;;7.00;4.22;;;28.20;86.10;;;;;;5138902;27;20377;-81
2021/06/10 10:36:03;;;;;;;5.53;3.97;;;27.90;88.00;;;;;;5139831;27;20119;-82
2021/06/10 10:38:40;;;;;;;5.53;3.90;;;28.20;89.50;;;;;;5141878;27;20038;-80
2021/06/10 10:41:11;;;;;;;6.20;4.65;;;28.10;89.10;;;;;;5143433;27;20019;-80
2021/06/10 10:43:38;;;;;;;6.22;4.18;;;27.60;88.40;;;;;;5156385;27;20020;-83
2021/06/10 10:46:20;;;;;;;7.25;3.97;;;27.70;89.10;;;;;;5139568;28;20026;-80
2021/06/10 10:48:51;;;;;;;6.50;4.43;;;27.70;90.00;;;;;;5140885;27;20560;-78
2021/06/10 10:51:26;;;;;;;6.03;4.30;;;28.30;91.20;;;;;;5142177;27;20023;-79
2021/06/10 10:54:00;;;;;;;5.68;4.13;;;28.20;88.80;;;;;;5141502;27;20019;-80
2021/06/10 10:56:38;;;;;;;7.05;4.85;;;28.40;89.20;;;;;;5138973;27;20027;-76
2021/06/10 10:59:15;;;;;;;7.40;4.55;;;28.00;91.00;;;;;;5133870;27;20020;-77
2021/06/10 11:02:00;;;;;;;5.05;4.00;;;28.10;89.60;;;;;;5136543;27;20012;-80
2021/06/10 11:04:48;;;;;;;5.53;4.53;;;28.00;89.40;;;;;;5135263;28;20069;-77
2021/06/10 11:07:53;;;;;;;5.85;4.45;;;27.70;87.60;;;;;;5133101;28;20054;-77
2021/06/10 11:10:49;;;;;;;4.22;3.63;;;27.50;86.70;;;;;;5131165;28;20430;-77
2021/06/10 11:13:19;;;;;;;5.05;3.60;;;27.30;84.10;;;;;;5130869;28;20023;-78
2021/06/10 11:15:46;;;;;;;5.13;3.50;;;27.30;85.20;;;;;;5130888;28;20027;-77
2021/06/10 11:18:13;;;;;;;4.97;3.60;;;27.10;86.40;;;;;;5133015;27;20058;-78
2021/06/10 11:20:38;;;;;;;5.07;3.50;;;27.10;83.30;;;;;;5132757;27;20023;-77
2021/06/10 11:23:19;;;;;;;8.32;3.70;;;27.10;84.30;;;;;;5132708;27;20083;-78
2021/06/10 11:25:52;;;;;;;4.25;3.72;;;27.00;83.50;;;;;;5140761;28;20024;-83
2021/06/10 11:28:23;;;;;;;4.35;3.45;;;26.60;84.10;;;;;;5145737;27;20034;-82
2021/06/10 11:31:11;;;;;;;6.85;3.65;;;26.60;84.30;;;;;;5146905;27;20017;-79
2021/06/10 11:33:37;;;;;;;4.80;3.58;;;27.00;85.40;;;;;;5149226;27;20004;-80
2021/06/10 11:36:05;;;;;;;5.30;3.60;;;27.40;84.70;;;;;;5142070;27;20028;-78
2021/06/10 11:38:40;;;;;;;5.45;3.47;;;27.20;84.10;;;;;;5143337;27;20381;-77
2021/06/10 11:41:10;;;;;;;6.07;3.75;;;27.40;82.90;;;;;;5141294;27;20057;-81
2021/06/10 11:43:46;;;;;;;5.05;3.47;;;27.20;82.30;;;;;;5149762;27;20030;-81
2021/06/10 11:46:16;;;;;;;4.65;3.50;;;27.50;83.40;;;;;;5147941;27;20457;-78
2021/06/10 11:48:53;;;;;;;4.95;3.70;;;27.90;85.00;;;;;;5146122;27;20567;-81
2021/06/10 11:51:25;;;;;;;4.22;3.60;;;28.00;82.50;;;;;;5149780;27;20052;-83
2021/06/10 11:54:11;;;;;;;7.25;3.78;;;28.20;80.50;;;;;;5145346;27;20019;-81
2021/06/10 11:56:38;;;;;;;5.82;3.40;;;28.20;83.70;;;;;;5140751;27;20035;-82
2021/06/10 11:59:16;;;;;;;7.03;3.78;;;27.50;79.00;;;;;;5139748;27;20476;-82
2021/06/10 12:02:04;;;;;;;4.55;3.70;;;27.20;81.60;;;;;;5141898;27;20011;-79
2021/06/10 12:04:32;;;;;;;4.35;3.60;;;27.20;81.10;;;;;;5147008;27;20031;-78
2021/06/10 12:07:09;;;;;;;5.97;3.30;;;27.10;80.20;;;;;;5148056;27;20003;-81
2021/06/10 12:09:35;;;;;;;5.00;3.22;;;27.10;82.10;;;;;;5142107;27;20022;-79
2021/06/10 12:12:02;;;;;;;3.88;3.17;;;26.70;81.40;;;;;;5138586;27;20029;-83
2021/06/10 12:14:39;;;;;;;5.35;3.30;;;26.70;80.50;;;;;;5140756;27;20027;-80
2021/06/10 12:17:08;;;;;;;6.18;3.30;;;26.80;81.10;;;;;;5139096;27;20385;-77
2021/06/10 12:19:33;;;;;;;4.55;3.13;;;26.60;81.30;;;;;;5142039;27;20104;-78
2021/06/10 12:22:03;;;;;;;4.82;3.60;;;26.60;81.50;;;;;;5147400;27;20015;-80
2021/06/10 12:24:42;;;;;;;4.00;3.03;;;26.50;80.40;;;;;;5150025;27;20032;-80
2021/06/10 12:27:34;;;;;;;5.03;3.10;;;26.70;82.10;;;;;;5148521;27;20102;-81
2021/06/10 12:30:00;;;;;;;4.97;3.58;;;26.50;81.10;;;;;;5141917;27;20016;-79
2021/06/10 12:32:29;;;;;;;6.82;3.65;;;26.60;82.30;;;;;;5148381;27;20003;-79
2021/06/10 12:34:57;;;;;;;4.97;3.20;;;26.50;82.10;;;;;;5146380;27;20027;-78
2021/06/10 12:37:23;;;;;;;4.40;3.30;;;26.60;82.50;;;;;;5143746;27;20027;-79
2021/06/10 12:39:49;;;;;;;5.70;3.50;;;26.40;80.60;;;;;;5146568;27;20401;-80
2021/06/10 12:42:15;;;;;;;5.70;3.20;;;26.60;81.10;;;;;;5142291;27;20102;-78
2021/06/10 12:44:41;;;;;;;4.88;3.45;;;27.20;80.70;;;;;;5143043;27;20039;-83
2021/06/10 12:47:07;;;;;;;5.57;3.00;;;27.50;80.80;;;;;;5146192;27;20015;-81